Time;durP1;ratioP1;P1;durP2;ratioP2;P2;SDS_P1;SDS_P2;PMS_P1;PMS_P2;Temp;Humidity;BMP_temperature;BMP_pressure;BME280_temperature;BME280_humidity;BME280_pressure;Samples;Min_cycle;Max_cycle;Signal;HPM_P1;HPM_P2
2020/12/19 00:00:26;;;;;;;11.20;8.42;;;7.50;99.90;;;12.19;87.23;101454.55;1724730;73;24456;-75
2020/12/19 00:02:43;;;;;;;11.16;9.51;;;7.50;99.90;;;12.39;84.90;101447.88;1724473;73;24444;-77
2020/12/19 00:05:02;;;;;;;10.99;8.54;;;7.50;99.90;;;12.37;85.34;101444.77;1733737;73;24436;-75
2020/12/19 00:07:23;;;;;;;11.89;8.87;;;7.50;99.90;;;12.35;85.42;101449.09;1724633;73;24436;-77
2020/12/19 00:09:43;;;;;;;11.75;8.76;;;7.50;99.90;;;12.17;86.54;101453.22;1724125;73;24380;-76
2020/12/19 00:12:00;;;;;;;11.40;9.20;;;7.50;99.90;;;12.19;86.19;101453.23;1725367;73;24434;-76
2020/12/19 00:14:17;;;;;;;10.78;8.58;;;7.50;99.90;;;12.35;85.71;101446.06;1745130;73;24463;-77
2020/12/19 00:16:34;;;;;;;14.58;9.53;;;7.60;99.90;;;12.22;85.34;101449.36;1724568;73;24440;-75
2020/12/19 00:18:51;;;;;;;12.30;9.48;;;7.50;99.90;;;11.80;86.99;101447.03;1724837;73;24933;-76
2020/12/19 00:21:07;;;;;;;13.20;10.01;;;7.50;99.90;;;12.18;85.28;101439.33;1723657;73;24578;-76
2020/12/19 00:23:24;;;;;;;13.00;10.95;;;7.50;99.90;;;12.11;86.37;101443.11;1722209;73;24905;-76
2020/12/19 00:25:40;;;;;;;12.95;8.31;;;7.50;99.90;;;12.24;86.42;101431.98;1724267;73;26051;-77
2020/12/19 00:27:56;;;;;;;10.38;8.73;;;7.40;99.90;;;12.05;86.57;101440.01;1734011;73;24927;-75
2020/12/19 00:30:14;;;;;;;10.96;8.05;;;7.40;99.90;;;11.99;87.96;101441.23;1732632;73;25065;-75
2020/12/19 00:32:29;;;;;;;14.46;11.65;;;7.40;99.90;;;11.95;88.00;101430.28;1727837;73;24440;-76
2020/12/19 00:34:48;;;;;;;12.65;9.83;;;7.50;99.90;;;12.27;86.49;101428.11;1724547;73;24393;-76
2020/12/19 00:37:07;;;;;;;13.24;10.19;;;7.50;99.90;;;12.12;85.85;101424.86;1727744;73;24547;-77
2020/12/19 00:39:24;;;;;;;11.97;8.96;;;7.40;99.90;;;12.06;86.67;101426.54;1724659;73;24469;-76
2020/12/19 00:41:40;;;;;;;14.27;11.23;;;7.40;99.90;;;12.01;87.07;101419.06;1729875;73;24484;-76
2020/12/19 00:43:56;;;;;;;11.75;8.10;;;7.40;99.90;;;12.07;86.52;101416.53;1724401;73;24946;-75
2020/12/19 00:46:15;;;;;;;12.92;8.58;;;7.40;99.90;;;11.91;87.04;101419.36;1730258;73;24444;-76
2020/12/19 00:48:34;;;;;;;12.14;9.46;;;7.40;99.90;;;12.09;87.00;101407.86;1728895;73;24925;-76
2020/12/19 00:50:50;;;;;;;13.26;10.67;;;7.40;99.90;;;12.12;86.94;101399.20;1728012;73;24515;-76
2020/12/19 00:53:08;;;;;;;11.83;8.73;;;7.40;99.90;;;12.22;85.54;101397.59;1728297;73;24498;-76
2020/12/19 00:55:26;;;;;;;11.60;9.05;;;7.40;99.90;;;12.01;86.82;101399.04;1725825;73;24448;-76
2020/12/19 00:57:42;;;;;;;15.04;10.60;;;7.40;99.90;;;12.22;85.89;101394.98;1717457;73;24469;-77
2020/12/19 01:00:02;;;;;;;13.49;10.96;;;7.40;99.90;;;11.95;87.14;101392.44;1693910;73;25035;-76
2020/12/19 01:02:21;;;;;;;15.31;9.76;;;7.40;99.90;;;11.75;88.06;101398.23;1719820;73;24489;-76
2020/12/19 01:04:40;;;;;;;12.70;9.73;;;7.40;99.90;;;12.06;87.47;101388.23;1719590;73;24476;-77
2020/12/19 01:06:55;;;;;;;13.38;10.30;;;7.40;99.90;;;12.16;86.82;101386.63;1715991;74;24514;-76
2020/12/19 01:09:14;;;;;;;11.09;7.32;;;7.40;99.90;;;12.23;86.37;101379.75;1722439;73;24431;-77
2020/12/19 01:11:33;;;;;;;14.12;11.37;;;7.40;99.90;;;12.04;86.95;101376.89;1716529;73;24526;-76
2020/12/19 01:13:50;;;;;;;12.38;9.62;;;7.40;99.90;;;12.28;85.92;101371.12;1717781;73;24948;-77
2020/12/19 01:16:07;;;;;;;13.27;9.43;;;7.40;99.90;;;12.03;87.37;101374.27;1715881;73;24448;-75
2020/12/19 01:18:23;;;;;;;11.14;8.43;;;7.40;99.90;;;12.13;87.10;101377.03;1715931;73;24909;-77
2020/12/19 01:20:40;;;;;;;11.67;8.70;;;7.40;99.90;;;12.07;88.01;101378.69;1725224;73;24427;-76
2020/12/19 01:22:56;;;;;;;12.33;9.07;;;7.50;99.90;;;12.25;87.79;101375.43;1727083;73;24456;-78
2020/12/19 01:25:12;;;;;;;10.95;7.77;;;7.50;99.90;;;12.12;88.19;101375.26;1738632;73;24457;-76
2020/12/19 01:27:30;;;;;;;11.08;7.98;;;7.50;99.90;;;12.14;88.14;101372.25;1716349;73;24443;-76
2020/12/19 01:29:47;;;;;;;11.54;8.86;;;7.50;99.90;;;12.18;88.01;101384.92;1716468;73;24492;-77
2020/12/19 01:32:03;;;;;;;12.53;9.07;;;7.50;99.90;;;12.12;87.73;101381.78;1717353;73;24511;-76
2020/12/19 01:34:21;;;;;;;13.92;9.65;;;7.60;99.90;;;12.05;88.35;101372.14;1721274;73;24448;-76
2020/12/19 01:36:37;;;;;;;14.46;10.51;;;7.50;99.90;;;12.14;88.32;101383.11;1716324;73;24964;-76
2020/12/19 01:38:54;;;;;;;13.78;10.21;;;7.60;99.90;;;12.17;87.19;101376.65;1716397;73;24873;-77
2020/12/19 01:41:14;;;;;;;15.84;12.09;;;7.60;99.90;;;12.16;87.61;101374.45;1715527;73;24491;-76
2020/12/19 01:43:43;;;;;;;14.76;11.99;;;7.60;99.90;;;12.31;86.78;101375.08;1716915;73;24443;-76
2020/12/19 01:45:59;;;;;;;13.41;8.91;;;7.50;99.90;;;12.35;86.73;101367.71;1716295;74;24452;-76
2020/12/19 01:48:23;;;;;;;11.78;8.50;;;7.50;99.90;;;12.01;87.88;101373.39;1716248;74;24443;-77
2020/12/19 01:50:42;;;;;;;14.57;10.74;;;7.50;99.90;;;11.94;89.15;101363.71;1716411;73;24651;-75
2020/12/19 01:52:59;;;;;;;9.55;7.04;;;7.50;99.90;;;12.27;87.84;101355.41;1716510;73;24987;-77
2020/12/19 01:55:16;;;;;;;11.99;8.24;;;7.50;99.90;;;12.13;87.48;101361.37;1716432;73;24873;-76
2020/12/19 01:57:34;;;;;;;15.24;11.37;;;7.50;99.90;;;12.01;88.41;101354.67;1711854;74;24516;-76
2020/12/19 01:59:52;;;;;;;11.69;8.81;;;7.50;99.90;;;12.22;87.89;101342.76;1706288;74;24950;-78
2020/12/19 02:02:11;;;;;;;14.68;10.15;;;7.50;99.90;;;12.05;88.61;101345.15;1706062;74;24609;-76
2020/12/19 02:04:29;;;;;;;14.62;10.56;;;7.50;99.90;;;12.23;88.38;101349.72;1705735;74;24449;-77
2020/12/19 02:06:48;;;;;;;12.39;8.15;;;7.50;99.90;;;12.18;88.30;101346.64;1709495;74;24504;-77
2020/12/19 02:09:05;;;;;;;15.21;11.67;;;7.50;99.90;;;12.03;88.86;101347.74;1704854;74;24885;-76
2020/12/19 02:11:25;;;;;;;14.35;9.27;;;7.60;99.90;;;12.20;87.97;101344.91;1705133;74;24458;-76
2020/12/19 02:13:44;;;;;;;12.87;9.17;;;7.50;99.90;;;11.98;88.88;101352.02;1713833;74;24895;-76
2020/12/19 02:16:00;;;;;;;13.49;8.70;;;;;;;12.15;88.91;101346.58;1713421;74;24516;-76
2020/12/19 02:18:17;;;;;;;9.01;6.52;;;7.50;99.90;;;10.87;94.43;101358.53;1708582;74;24616;-75
2020/12/19 02:20:33;;;;;;;10.94;7.91;;;7.60;99.90;;;11.20;94.33;101348.67;1706758;74;24584;-76
2020/12/19 02:22:51;;;;;;;12.06;9.01;;;7.60;99.90;;;12.06;89.17;101344.31;1705321;75;24449;-76
2020/12/19 02:25:07;;;;;;;12.56;9.78;;;7.50;99.90;;;12.20;88.49;101342.29;1709961;74;24592;-76
2020/12/19 02:27:25;;;;;;;11.58;8.57;;;7.50;99.90;;;12.27;87.93;101339.33;1707120;74;24430;-76
2020/12/19 02:29:41;;;;;;;13.54;10.48;;;7.60;99.90;;;12.23;89.05;101340.59;1706655;74;24496;-76
2020/12/19 02:32:02;;;;;;;11.80;8.45;;;7.60;99.90;;;11.87;89.74;101342.33;1706962;74;24984;-76
2020/12/19 02:34:21;;;;;;;10.00;7.08;;;7.60;99.90;;;12.23;88.84;101344.08;1708104;74;24889;-75
2020/12/19 02:36:39;;;;;;;10.90;8.62;;;7.60;99.90;;;12.04;89.97;101342.11;1704995;74;24488;-76
2020/12/19 02:38:54;;;;;;;13.22;7.70;;;7.70;99.90;;;12.26;89.72;101344.53;1719261;74;24440;-76
2020/12/19 02:41:12;;;;;;;13.53;10.87;;;7.70;99.90;;;12.17;89.77;101336.19;1723442;74;24955;-77
2020/12/19 02:43:31;;;;;;;11.37;8.57;;;7.70;99.90;;;12.32;88.79;101332.84;1716595;74;24509;-75
2020/12/19 02:45:48;;;;;;;16.75;10.80;;;7.70;99.90;;;11.97;89.63;101321.57;1705081;74;24438;-76
2020/12/19 02:48:31;;;;;;;15.37;10.77;;;7.70;99.90;;;12.23;89.09;101321.00;1705818;74;24516;-75
2020/12/19 02:50:48;;;;;;;11.91;8.68;;;7.70;99.90;;;12.29;88.95;101324.56;1705654;74;24448;-76
2020/12/19 02:53:04;;;;;;;15.00;11.84;;;7.70;99.90;;;12.28;88.87;101320.20;1706138;74;24456;-77
2020/12/19 02:55:28;;;;;;;13.73;9.68;;;7.70;99.90;;;12.35;88.45;101320.70;1711208;74;24930;-76
2020/12/19 02:57:44;;;;;;;15.09;10.59;;;7.70;99.90;;;12.22;89.00;101316.20;1705578;75;24531;-76
2020/12/19 03:00:00;;;;;;;14.16;11.76;;;7.70;99.90;;;12.32;88.54;101317.17;1705937;75;24555;-76
2020/12/19 03:02:17;;;;;;;13.95;9.47;;;7.70;99.90;;;12.44;88.38;101319.94;1714626;74;24444;-76
2020/12/19 03:04:33;;;;;;;15.13;12.19;;;7.70;99.90;;;12.24;89.11;101317.10;1704873;74;24448;-75
2020/12/19 03:06:50;;;;;;;11.26;8.42;;;7.70;99.90;;;12.53;88.26;101316.11;1705382;74;24521;-76
2020/12/19 03:09:08;;;;;;;12.21;8.68;;;7.70;99.90;;;12.23;89.54;101304.03;1679411;75;24478;-76
2020/12/19 03:11:24;;;;;;;11.17;7.90;;;7.70;99.90;;;12.23;89.46;101309.25;1706086;74;24492;-76
2020/12/19 03:13:43;;;;;;;12.58;7.97;;;7.90;99.90;;;12.11;89.82;101316.09;1711021;74;24946;-75
2020/12/19 03:16:01;;;;;;;12.82;8.53;;;7.70;99.90;;;11.30;93.18;101316.69;1704778;74;24877;-76
2020/12/19 03:18:18;;;;;;;13.21;10.15;;;7.80;99.90;;;11.94;91.37;101316.32;1706177;74;24430;-76
2020/12/19 03:20:36;;;;;;;13.98;9.83;;;7.70;99.90;;;12.17;89.96;101308.31;1712861;74;24460;-76
2020/12/19 03:22:52;;;;;;;13.89;10.54;;;7.70;99.90;;;12.00;89.96;101309.86;1705423;74;24491;-77
2020/12/19 03:25:08;;;;;;;11.38;9.04;;;7.70;99.90;;;12.06;89.96;101310.38;1705734;74;24958;-77
2020/12/19 03:27:25;;;;;;;15.24;10.75;;;7.70;99.90;;;12.08;89.40;101303.42;1706129;74;24500;-77
2020/12/19 03:29:43;;;;;;;11.57;9.10;;;7.70;99.90;;;12.09;88.83;101306.50;1714230;74;24436;-76
2020/12/19 03:32:03;;;;;;;14.84;11.26;;;7.60;99.90;;;12.00;89.61;101300.73;1705311;74;24456;-75
2020/12/19 03:34:19;;;;;;;13.06;9.44;;;7.60;99.90;;;12.01;89.34;101301.16;1706911;75;24928;-75
2020/12/19 03:36:36;;;;;;;15.20;11.03;;;7.60;99.90;;;11.92;90.10;101308.89;1707250;74;24503;-77
2020/12/19 03:38:55;;;;;;;11.92;9.58;;;7.60;99.90;;;11.98;89.87;101287.23;1708351;74;24456;-76
2020/12/19 03:41:12;;;;;;;13.61;9.95;;;7.60;99.90;;;11.89;90.28;101282.76;1714510;74;24489;-74
2020/12/19 03:43:29;;;;;;;12.17;8.97;;;7.60;99.90;;;11.88;90.12;101283.63;1715954;74;24617;-76
2020/12/19 03:45:46;;;;;;;11.90;7.63;;;7.60;99.90;;;11.75;91.22;101284.74;1705113;74;24493;-76
2020/12/19 03:48:04;;;;;;;13.55;10.34;;;7.90;99.90;;;11.80;90.70;101280.46;1705487;74;24509;-76
2020/12/19 03:50:20;;;;;;;13.42;9.92;;;7.50;99.90;;;11.48;91.75;101276.09;1713302;74;24439;-76
2020/12/19 03:52:37;;;;;;;10.83;7.96;;;7.60;99.90;;;12.17;90.11;101261.33;1705000;74;24569;-76
2020/12/19 03:54:54;;;;;;;12.47;9.82;;;7.60;99.90;;;12.29;89.82;101270.14;1716514;74;24456;-75
2020/12/19 03:57:11;;;;;;;19.39;10.81;;;7.60;99.90;;;12.23;89.17;101263.99;1707815;74;24443;-76
2020/12/19 03:59:28;;;;;;;13.75;10.39;;;7.60;99.90;;;12.23;89.41;101264.86;1710982;74;24993;-76
2020/12/19 04:01:44;;;;;;;12.13;8.43;;;7.60;99.90;;;12.36;89.23;101253.23;1716408;73;24452;-75
2020/12/19 04:04:02;;;;;;;14.90;11.30;;;7.60;99.90;;;12.22;90.12;101247.46;1719697;73;24534;-76
2020/12/19 04:06:18;;;;;;;14.97;10.89;;;7.60;99.90;;;12.40;89.15;101245.89;1719982;73;24497;-75
2020/12/19 04:08:35;;;;;;;11.23;8.23;;;7.70;99.90;;;12.32;89.37;101244.06;1720915;73;24484;-75
2020/12/19 04:10:52;;;;;;;14.08;10.04;;;7.70;99.90;;;12.39;89.40;101239.36;1718679;73;24999;-76
2020/12/19 04:13:08;;;;;;;14.05;11.50;;;7.70;99.90;;;12.31;89.36;101228.84;1715975;75;24452;-75
2020/12/19 04:15:28;;;;;;;12.47;9.29;;;7.70;99.90;;;12.47;88.85;101236.39;1716240;73;24429;-76
2020/12/19 04:17:45;;;;;;;10.03;7.27;;;7.60;99.90;;;12.31;88.78;101232.77;1731614;73;24494;-76
2020/12/19 04:20:02;;;;;;;11.65;8.96;;;7.60;99.90;;;12.30;88.65;101223.61;1716517;73;24946;-76
2020/12/19 04:22:18;;;;;;;12.78;9.16;;;7.70;99.90;;;12.40;89.27;101234.14;1715866;73;24507;-75
2020/12/19 04:24:36;;;;;;;11.10;7.64;;;7.70;99.90;;;12.41;88.89;101239.80;1716237;75;24465;-76
2020/12/19 04:26:52;;;;;;;13.34;9.67;;;7.70;99.90;;;12.33;89.48;101233.63;1716756;73;24451;-76
2020/12/19 04:29:08;;;;;;;10.76;7.43;;;7.70;99.90;;;12.40;89.68;101235.88;1722198;73;24467;-76
2020/12/19 04:31:27;;;;;;;9.50;7.89;;;7.80;99.90;;;12.31;89.85;101230.15;1716279;73;25037;-77
2020/12/19 04:33:42;;;;;;;14.02;10.65;;;7.80;99.90;;;12.37;89.86;101234.54;1716156;73;24570;-76
2020/12/19 04:36:01;;;;;;;10.65;7.37;;;7.80;99.90;;;12.51;89.09;101233.81;1716254;73;24592;-78
2020/12/19 04:38:17;;;;;;;13.98;11.35;;;7.80;99.90;;;12.32;89.94;101229.70;1716194;73;24483;-78
2020/12/19 04:40:34;;;;;;;11.16;8.07;;;7.80;99.90;;;12.53;88.56;101223.37;1717831;73;24431;-76
2020/12/19 04:42:55;;;;;;;11.36;8.47;;;7.80;99.90;;;12.45;89.08;101227.23;1716350;73;24563;-76
2020/12/19 04:45:13;;;;;;;12.17;9.98;;;7.70;99.90;;;12.40;88.88;101228.03;1684394;73;24474;-76
2020/12/19 04:47:31;;;;;;;12.07;8.47;;;7.70;99.90;;;12.45;88.41;101219.40;1720916;73;24449;-77
2020/12/19 04:49:50;;;;;;;11.00;8.00;;;7.70;99.90;;;12.41;88.99;101225.44;1716526;73;24441;-75
2020/12/19 04:52:07;;;;;;;10.07;7.92;;;7.70;99.90;;;12.36;88.82;101216.68;1716252;73;24912;-76
2020/12/19 04:54:25;;;;;;;14.75;10.94;;;7.70;99.90;;;12.38;89.20;101221.49;1716282;73;24507;-77
2020/12/19 04:56:44;;;;;;;14.42;11.25;;;7.80;99.90;;;12.66;87.83;101218.25;1716376;73;24443;-77
2020/12/19 04:59:08;;;;;;;11.94;9.57;;;7.80;99.90;;;12.59;87.71;101214.28;1717447;73;24485;-76
2020/12/19 05:01:25;;;;;;;12.16;9.50;;;7.70;99.90;;;12.56;87.72;101207.72;1716091;73;24511;-76
2020/12/19 05:03:47;;;;;;;12.05;8.64;;;7.70;99.90;;;12.49;88.45;101199.41;1716519;73;24455;-76
2020/12/19 05:06:04;;;;;;;11.83;8.95;;;7.80;99.90;;;12.48;89.16;101199.83;1721087;73;24428;-75
2020/12/19 05:08:21;;;;;;;11.22;7.92;;;7.80;99.90;;;12.54;87.97;101190.73;1718773;73;24515;-75
2020/12/19 05:10:38;;;;;;;13.00;10.08;;;7.70;99.90;;;12.32;88.65;101185.30;1716430;73;24432;-77
2020/12/19 05:12:57;;;;;;;12.82;8.01;;;7.80;99.90;;;12.53;88.19;101192.91;1719359;73;24456;-77
2020/12/19 05:15:18;;;;;;;12.61;9.55;;;7.70;99.90;;;12.41;87.98;101191.48;1716326;73;24488;-77
2020/12/19 05:17:34;;;;;;;11.92;9.38;;;7.70;99.90;;;12.62;87.25;101189.48;1716641;73;24665;-75
2020/12/19 05:19:54;;;;;;;11.08;9.33;;;7.70;99.90;;;12.61;87.09;101198.19;1720795;73;24639;-76
2020/12/19 05:22:14;;;;;;;13.00;10.52;;;7.70;99.90;;;12.52;86.69;101192.91;1716255;74;24491;-74
2020/12/19 05:24:35;;;;;;;10.29;8.93;;;7.70;99.90;;;12.74;86.76;101181.30;1716265;73;24947;-75
2020/12/19 05:26:52;;;;;;;14.64;10.40;;;7.70;99.90;;;12.60;86.06;101179.47;1722150;73;24448;-76
2020/12/19 05:29:11;;;;;;;14.36;11.29;;;7.60;99.90;;;12.58;85.90;101188.61;1716274;74;24892;-76
2020/12/19 05:31:27;;;;;;;14.14;9.86;;;7.60;99.90;;;12.53;86.00;101189.41;1716576;73;24487;-75
2020/12/19 05:33:45;;;;;;;12.25;8.77;;;7.60;99.90;;;12.34;86.45;101183.59;1716315;73;24428;-76
2020/12/19 05:36:01;;;;;;;12.82;9.79;;;7.50;99.90;;;12.38;87.13;101179.71;1716142;74;24502;-76
2020/12/19 05:38:17;;;;;;;13.58;10.01;;;7.50;99.90;;;12.37;86.71;101184.92;1723873;73;24440;-75
2020/12/19 05:40:36;;;;;;;12.97;10.69;;;7.50;99.90;;;12.46;86.74;101178.46;1716279;74;24470;-76
2020/12/19 05:42:54;;;;;;;11.98;9.79;;;7.50;99.90;;;12.51;85.90;101178.95;1700262;73;24448;-75
2020/12/19 05:45:20;;;;;;;12.66;9.75;;;7.50;99.90;;;12.34;86.50;101173.15;1716481;73;24949;-75
2020/12/19 05:47:36;;;;;;;12.30;10.09;;;7.50;99.90;;;12.39;87.04;101176.26;1716299;73;24437;-75
2020/12/19 05:49:55;;;;;;;10.59;8.21;;;7.50;99.90;;;12.39;86.49;101174.95;1720060;73;24459;-76
2020/12/19 05:52:14;;;;;;;11.81;8.86;;;7.50;99.90;;;12.39;87.35;101176.26;1722092;73;24590;-78
2020/12/19 05:54:34;;;;;;;9.93;7.84;;;7.50;99.90;;;12.30;87.45;101163.09;1723393;73;24905;-76
2020/12/19 05:56:56;;;;;;;9.99;7.99;;;7.50;99.90;;;12.40;87.36;101174.08;1727968;73;24910;-76
2020/12/19 05:59:15;;;;;;;10.07;7.66;;;7.50;99.90;;;12.55;87.28;101171.57;1722744;73;24595;-76
2020/12/19 06:01:39;;;;;;;9.79;6.53;;;7.60;99.90;;;12.50;87.22;101169.38;1707843;73;24859;-76
2020/12/19 06:03:57;;;;;;;10.09;6.40;;;7.70;99.90;;;12.56;86.83;101174.65;1706990;74;24508;-77
2020/12/19 06:06:17;;;;;;;9.93;7.39;;;7.70;99.90;;;12.51;87.54;101176.77;1707431;74;24543;-76
2020/12/19 06:08:37;;;;;;;9.94;8.17;;;7.80;99.90;;;12.50;87.08;101174.61;1710806;74;24494;-76
2020/12/19 06:10:55;;;;;;;9.80;7.51;;;7.80;99.90;;;12.59;86.67;101169.44;1707476;74;24518;-76
2020/12/19 06:13:17;;;;;;;9.78;6.13;;;7.80;99.90;;;12.71;86.14;101163.45;1706553;74;24454;-76
2020/12/19 06:15:50;;;;;;;7.50;5.77;;;7.80;99.90;;;12.52;86.80;101165.02;1714227;74;24496;-76
2020/12/19 06:18:13;;;;;;;11.37;8.09;;;7.90;99.90;;;12.79;85.79;101159.11;1707305;74;24442;-77
2020/12/19 06:20:35;;;;;;;9.92;7.22;;;7.90;99.90;;;12.98;84.56;101149.21;1703350;74;25053;-74
2020/12/19 06:22:55;;;;;;;9.43;6.99;;;7.90;99.90;;;12.83;84.66;101151.75;1685359;75;24883;-77
2020/12/19 06:25:11;;;;;;;7.65;6.61;;;7.90;99.90;;;12.79;84.26;101153.89;1708943;74;24421;-76
2020/12/19 06:27:45;;;;;;;10.51;6.76;;;7.90;99.90;;;12.65;85.62;101158.14;1708982;74;24537;-75
2020/12/19 06:30:03;;;;;;;10.69;7.98;;;8.00;99.90;;;12.82;84.70;101156.09;1706576;74;24515;-77
2020/12/19 06:32:23;;;;;;;10.22;7.71;;;8.00;99.90;;;12.86;84.41;101154.38;1710956;74;24433;-76
2020/12/19 06:34:39;;;;;;;9.35;7.18;;;8.10;99.90;;;12.85;84.24;101163.09;1705824;74;24440;-76
2020/12/19 06:37:00;;;;;;;8.52;6.31;;;8.00;99.90;;;12.77;84.00;101163.02;1705423;74;24406;-76
2020/12/19 06:39:16;;;;;;;7.86;6.32;;;8.00;99.90;;;12.83;84.38;101160.90;1710604;74;24976;-76
2020/12/19 06:44:32;;;;;;;10.07;7.78;;;8.00;99.90;;;13.04;82.94;101154.53;1746173;72;25231;-75
2020/12/19 06:46:52;;;;;;;8.58;5.82;;;8.00;99.90;;;12.76;83.78;101160.40;1725773;73;24499;-76
2020/12/19 06:49:37;;;;;;;12.45;8.31;;;7.90;99.90;;;12.55;84.65;101156.35;1717676;73;24431;-78
2020/12/19 06:52:04;;;;;;;9.83;8.83;;;7.90;99.90;;;12.73;83.38;101154.73;1717317;73;24504;-75
2020/12/19 06:54:33;;;;;;;9.70;7.10;;;7.90;99.90;;;12.85;83.12;101150.03;1716812;75;24583;-80
2020/12/19 06:56:50;;;;;;;9.41;8.31;;;7.90;99.90;;;12.68;83.76;101155.55;1717445;74;24451;-77
2020/12/19 06:59:07;;;;;;;11.42;8.10;;;7.80;99.90;;;12.71;84.26;101160.83;1718024;73;24659;-76
2020/12/19 07:01:32;;;;;;;8.96;7.52;;;7.80;99.90;;;12.63;84.02;101154.67;1727904;73;24443;-76
2020/12/19 07:03:50;;;;;;;9.82;5.35;;;7.80;99.90;;;12.56;84.75;101160.28;1716827;74;25024;-76
2020/12/19 07:06:15;;;;;;;9.91;8.17;;;7.80;99.90;;;12.35;85.44;101152.27;1717809;73;24477;-75
2020/12/19 07:08:34;;;;;;;8.97;7.10;;;7.80;99.90;;;12.67;84.24;101150.78;1718397;73;24775;-76
2020/12/19 07:10:55;;;;;;;10.12;6.57;;;7.80;99.90;;;12.60;84.11;101147.67;1725320;73;24826;-77
2020/12/19 07:13:12;;;;;;;10.32;7.43;;;7.80;99.90;;;12.46;85.00;101157.14;1716933;73;24440;-76
2020/12/19 07:15:50;;;;;;;11.17;8.75;;;7.80;99.90;;;12.61;84.95;101141.60;1718194;73;24586;-76
2020/12/19 07:18:06;;;;;;;9.69;7.45;;;7.80;99.90;;;12.74;84.04;101147.33;1719590;73;24470;-76
2020/12/19 07:20:27;;;;;;;9.88;6.92;;;7.80;99.90;;;12.63;84.10;101146.84;1716874;73;24439;-77
2020/12/19 07:22:46;;;;;;;10.10;8.24;;;7.80;99.90;;;12.63;85.09;101139.00;1723383;73;24972;-76
2020/12/19 07:25:02;;;;;;;10.09;7.37;;;7.80;99.90;;;12.83;83.86;101136.95;1722966;73;24900;-77
2020/12/19 07:27:19;;;;;;;10.93;7.69;;;7.80;99.90;;;12.66;84.29;101141.63;1720047;73;24437;-77
2020/12/19 07:29:37;;;;;;;9.62;7.08;;;7.80;99.90;;;12.76;84.73;101144.30;1722150;73;25016;-76
2020/12/19 07:31:59;;;;;;;11.37;9.29;;;7.90;99.90;;;12.67;85.06;101136.41;1724225;73;24449;-75
2020/12/19 07:34:21;;;;;;;11.55;9.07;;;7.90;99.90;;;12.90;83.95;101141.34;1721055;73;24971;-75
2020/12/19 07:36:43;;;;;;;12.14;9.17;;;7.90;99.90;;;12.85;83.99;101143.04;1716829;73;24440;-76
2020/12/19 07:39:02;;;;;;;9.67;7.79;;;7.90;99.90;;;12.77;84.28;101146.03;1716418;73;24878;-76
2020/12/19 07:41:22;;;;;;;11.46;9.73;;;7.90;99.90;;;12.72;84.72;101145.16;1717812;74;24524;-76
2020/12/19 07:43:41;;;;;;;11.69;10.23;;;7.90;99.90;;;13.01;84.45;101143.61;1688713;73;24498;-78
2020/12/19 07:46:00;;;;;;;11.15;8.09;;;8.00;99.90;;;12.94;84.11;101147.04;1717222;73;24457;-75
2020/12/19 07:48:17;;;;;;;11.46;8.56;;;7.90;99.90;;;12.79;85.18;101152.58;1716941;73;24465;-76
2020/12/19 07:50:36;;;;;;;10.99;8.96;;;7.90;99.90;;;12.84;84.62;101159.59;1723371;73;24428;-76
2020/12/19 07:53:05;;;;;;;11.33;7.31;;;7.90;99.90;;;12.73;85.21;101152.13;1735158;73;24553;-77
2020/12/19 07:55:23;;;;;;;14.74;9.51;;;7.90;99.90;;;12.72;85.88;101153.42;1721721;73;24873;-75
2020/12/19 07:57:42;;;;;;;10.83;8.88;;;7.90;99.90;;;13.05;84.77;101160.20;1716505;75;24441;-76
2020/12/19 07:59:59;;;;;;;9.52;7.37;;;8.00;99.90;;;13.04;84.25;101162.37;1715699;73;24453;-76
2020/12/19 08:02:28;;;;;;;11.82;8.71;;;8.00;99.90;;;13.04;85.01;101172.38;1729841;73;24353;-76
2020/12/19 08:04:57;;;;;;;12.00;10.40;;;8.10;99.90;;;13.07;84.79;101161.94;1716577;73;24494;-76
2020/12/19 08:07:14;;;;;;;10.57;8.81;;;8.10;99.90;;;13.23;84.17;101163.77;1716538;73;24527;-78
2020/12/19 08:09:32;;;;;;;11.20;8.27;;;8.10;99.90;;;13.16;84.70;101156.78;1716689;73;24437;-76
2020/12/19 08:11:53;;;;;;;11.46;9.24;;;8.10;99.90;;;13.09;85.39;101152.37;1716566;74;24442;-77
2020/12/19 08:14:11;;;;;;;9.09;7.63;;;8.20;99.90;;;13.24;85.26;101155.50;1734209;73;24447;-77
2020/12/19 08:16:28;;;;;;;11.99;10.34;;;8.20;99.90;;;13.03;86.14;101147.54;1720000;73;24486;-77
2020/12/19 08:18:44;;;;;;;11.06;8.47;;;8.30;99.90;;;13.37;84.77;101147.70;1718358;73;24441;-75
2020/12/19 08:21:00;;;;;;;11.73;9.22;;;8.30;99.90;;;13.15;84.84;101147.16;1717613;73;24504;-77
2020/12/19 08:23:22;;;;;;;12.72;10.04;;;8.30;99.90;;;13.13;84.99;101143.69;1721660;73;24916;-77
2020/12/19 08:28:24;;;;;;;12.82;8.85;;;8.20;99.90;;;13.39;84.60;101141.16;1748750;72;25341;-77
2020/12/19 08:30:40;;;;;;;11.65;9.73;;;8.20;99.90;;;13.29;84.79;101154.64;1725864;73;24589;-75
2020/12/19 08:33:03;;;;;;;12.01;8.89;;;8.30;99.90;;;13.47;84.66;101149.50;1710119;73;24812;-77
2020/12/19 08:38:23;;;;;;;10.39;8.11;;;8.30;99.90;;;13.74;84.08;101141.30;1730452;72;25285;-76
2020/12/19 08:40:43;;;;;;;11.16;8.37;;;8.40;99.90;;;13.41;84.72;101139.44;1691166;75;24901;-76
2020/12/19 08:43:06;;;;;;;7.80;6.87;;;8.40;99.90;;;13.47;84.66;101135.53;1686994;75;24487;-77
2020/12/19 08:45:32;;;;;;;12.48;8.88;;;8.40;99.90;;;13.44;85.48;101143.37;1686378;75;24502;-77
2020/12/19 08:47:54;;;;;;;13.06;9.50;;;8.50;99.90;;;13.78;84.79;101138.70;1687224;75;24431;-77
2020/12/19 08:50:11;;;;;;;7.92;5.93;;;8.60;99.90;;;13.98;84.38;101143.52;1691082;74;24500;-78
2020/12/19 08:52:28;;;;;;;10.11;7.20;;;8.70;99.90;;;13.75;85.54;101138.69;1683732;75;24984;-76
2020/12/19 08:55:00;;;;;;;9.29;7.74;;;8.80;99.90;;;14.06;85.38;101147.02;1681702;75;24492;-78
2020/12/19 08:57:31;;;;;;;12.71;9.64;;;8.90;99.90;;;14.35;83.85;101149.70;1683734;75;24574;-76
2020/12/19 08:59:48;;;;;;;12.72;8.99;;;9.00;99.90;;;14.39;83.14;101156.24;1680066;75;24465;-76
2020/12/19 09:04:33;;;;;;;11.84;8.29;;;9.20;99.90;;;14.45;83.19;101153.61;1732511;72;25786;-78
2020/12/19 09:06:57;;;;;;;11.33;8.32;;;9.20;99.90;;;14.40;83.08;101149.27;1701908;75;24549;-76
2020/12/19 09:09:23;;;;;;;9.37;7.33;;;9.30;99.90;;;14.44;83.31;101144.02;1699877;75;24719;-75
2020/12/19 09:11:43;;;;;;;11.78;9.34;;;9.30;99.90;;;14.39;83.92;101151.00;1695050;75;24933;-82
2020/12/19 09:14:10;;;;;;;10.46;8.93;;;9.40;99.90;;;14.50;83.11;101148.38;1711664;75;24906;-79
2020/12/19 09:16:35;;;;;;;11.12;9.74;;;9.40;99.90;;;14.56;83.13;101145.73;1690492;75;24891;-80
2020/12/19 09:18:52;;;;;;;11.35;8.54;;;9.50;99.90;;;14.58;82.12;101140.95;1699234;75;24424;-80
2020/12/19 09:21:10;;;;;;;11.16;8.87;;;9.50;99.90;;;14.52;82.77;101146.63;1695697;75;24492;-77
2020/12/19 09:23:30;;;;;;;10.92;7.30;;;9.50;99.90;;;14.65;82.40;101140.51;1694931;75;24427;-81
2020/12/19 09:25:52;;;;;;;7.82;6.30;;;9.50;99.90;;;14.56;82.99;101155.80;1691669;75;24490;-77
2020/12/19 09:28:08;;;;;;;9.47;7.06;;;9.60;99.90;;;14.59;83.01;101150.55;1699498;75;25014;-78
2020/12/19 09:30:29;;;;;;;9.02;7.37;;;9.70;99.90;;;14.66;83.29;101155.34;1696995;75;24468;-78
2020/12/19 09:32:47;;;;;;;9.69;7.84;;;9.80;99.90;;;14.92;81.93;101155.73;1700053;75;24508;-79
2020/12/19 09:35:05;;;;;;;9.30;7.37;;;9.90;99.90;;;15.03;81.33;101160.98;1701122;75;24945;-79
2020/12/19 09:37:22;;;;;;;10.81;8.03;;;9.90;99.90;;;14.90;81.87;101157.94;1696798;75;24436;-78
2020/12/19 09:39:39;;;;;;;11.27;9.04;;;10.00;99.90;;;15.12;81.00;101148.71;1699101;75;24988;-78
2020/12/19 09:41:55;;;;;;;8.62;6.72;;;10.10;99.90;;;15.40;79.48;101145.99;1697456;75;24472;-77
2020/12/19 09:44:11;;;;;;;9.70;6.93;;;10.10;99.90;;;15.19;80.75;101146.48;1698579;75;24500;-79
2020/12/19 09:46:29;;;;;;;9.92;8.11;;;10.20;99.90;;;15.24;80.65;101141.22;1700596;75;24419;-79
2020/12/19 09:48:47;;;;;;;9.89;6.32;;;10.30;99.90;;;15.58;80.50;101141.55;1701168;75;24529;-78